sensor_id;sensor_type;location;lat;lon;timestamp;temperature;humidity
54684;DHT22;40582;53.100;6.686;2022-12-20T00:02:11;8.20;99.90
54684;DHT22;40582;53.100;6.686;2022-12-20T00:04:37;8.20;99.90
54684;DHT22;40582;53.100;6.686;2022-12-20T00:07:03;8.10;99.90
54684;DHT22;40582;53.100;6.686;2022-12-20T00:09:28;8.10;99.90
54684;DHT22;40582;53.100;6.686;2022-12-20T00:11:54;8.10;99.90
54684;DHT22;40582;53.100;6.686;2022-12-20T00:14:19;8.00;99.90
54684;DHT22;40582;53.100;6.686;2022-12-20T00:16:45;8.00;99.90
54684;DHT22;40582;53.100;6.686;2022-12-20T00:19:11;8.10;99.90
54684;DHT22;40582;53.100;6.686;2022-12-20T00:21:37;8.10;99.90
54684;DHT22;40582;53.100;6.686;2022-12-20T00:24:04;8.10;99.90
54684;DHT22;40582;53.100;6.686;2022-12-20T00:26:31;8.20;99.90
54684;DHT22;40582;53.100;6.686;2022-12-20T00:28:58;8.20;99.90
54684;DHT22;40582;53.100;6.686;2022-12-20T00:31:26;8.20;99.90
54684;DHT22;40582;53.100;6.686;2022-12-20T00:33:54;8.20;99.90
54684;DHT22;40582;53.100;6.686;2022-12-20T00:36:22;8.20;99.90
54684;DHT22;40582;53.100;6.686;2022-12-20T00:38:50;8.10;99.90
54684;DHT22;40582;53.100;6.686;2022-12-20T00:41:19;8.10;99.90
54684;DHT22;40582;53.100;6.686;2022-12-20T00:43:46;8.10;99.90
54684;DHT22;40582;53.100;6.686;2022-12-20T00:46:13;8.20;99.90
54684;DHT22;40582;53.100;6.686;2022-12-20T00:48:39;8.20;99.90
54684;DHT22;40582;53.100;6.686;2022-12-20T00:51:11;8.20;99.90
54684;DHT22;40582;53.100;6.686;2022-12-20T00:53:38;8.30;99.90
54684;DHT22;40582;53.100;6.686;2022-12-20T00:56:04;8.20;99.90
54684;DHT22;40582;53.100;6.686;2022-12-20T00:58:39;8.30;99.90
54684;DHT22;40582;53.100;6.686;2022-12-20T01:01:13;8.20;99.90
54684;DHT22;40582;53.100;6.686;2022-12-20T01:03:39;8.20;99.90
54684;DHT22;40582;53.100;6.686;2022-12-20T01:06:04;8.20;99.90
54684;DHT22;40582;53.100;6.686;2022-12-20T01:08:30;8.30;99.90
54684;DHT22;40582;53.100;6.686;2022-12-20T01:11:11;8.30;99.90
54684;DHT22;40582;53.100;6.686;2022-12-20T01:13:38;8.30;99.90
54684;DHT22;40582;53.100;6.686;2022-12-20T01:16:07;8.30;99.90
54684;DHT22;40582;53.100;6.686;2022-12-20T01:18:33;8.30;99.90
54684;DHT22;40582;53.100;6.686;2022-12-20T01:21:04;8.30;99.90
54684;DHT22;40582;53.100;6.686;2022-12-20T01:23:30;8.30;99.90
54684;DHT22;40582;53.100;6.686;2022-12-20T01:26:00;8.30;99.90
54684;DHT22;40582;53.100;6.686;2022-12-20T01:28:27;8.30;99.90
54684;DHT22;40582;53.100;6.686;2022-12-20T01:30:53;8.30;99.90
54684;DHT22;40582;53.100;6.686;2022-12-20T01:33:19;8.30;99.90
54684;DHT22;40582;53.100;6.686;2022-12-20T01:35:55;8.30;99.90
54684;DHT22;40582;53.100;6.686;2022-12-20T01:38:21;8.20;99.90
54684;DHT22;40582;53.100;6.686;2022-12-20T01:40:47;8.30;99.90
54684;DHT22;40582;53.100;6.686;2022-12-20T01:43:14;8.30;99.90
54684;DHT22;40582;53.100;6.686;2022-12-20T01:45:41;8.30;99.90
54684;DHT22;40582;53.100;6.686;2022-12-20T01:48:06;8.40;99.90
54684;DHT22;40582;53.100;6.686;2022-12-20T01:50:33;8.40;99.90
54684;DHT22;40582;53.100;6.686;2022-12-20T01:52:59;8.40;99.90
54684;DHT22;40582;53.100;6.686;2022-12-20T01:55:29;8.40;99.90
54684;DHT22;40582;53.100;6.686;2022-12-20T01:58:01;8.40;99.90
54684;DHT22;40582;53.100;6.686;2022-12-20T02:00:29;8.30;99.90
54684;DHT22;40582;53.100;6.686;2022-12-20T02:02:58;8.40;99.90
54684;DHT22;40582;53.100;6.686;2022-12-20T02:05:25;8.40;99.90
54684;DHT22;40582;53.100;6.686;2022-12-20T02:07:53;8.40;99.90
54684;DHT22;40582;53.100;6.686;2022-12-20T02:10:22;8.40;99.90
54684;DHT22;40582;53.100;6.686;2022-12-20T02:12:50;8.40;99.90
54684;DHT22;40582;53.100;6.686;2022-12-20T02:15:38;8.40;99.90
54684;DHT22;40582;53.100;6.686;2022-12-20T02:26:55;8.40;99.90
54684;DHT22;40582;53.100;6.686;2022-12-20T02:29:32;8.50;99.90
54684;DHT22;40582;53.100;6.686;2022-12-20T02:34:32;8.50;99.90
54684;DHT22;40582;53.100;6.686;2022-12-20T02:36:59;8.50;99.90
54684;DHT22;40582;53.100;6.686;2022-12-20T02:39:28;8.40;99.90
54684;DHT22;40582;53.100;6.686;2022-12-20T02:41:57;8.50;99.90
54684;DHT22;40582;53.100;6.686;2022-12-20T02:44:27;8.60;99.90
54684;DHT22;40582;53.100;6.686;2022-12-20T02:47:18;8.60;99.90
54684;DHT22;40582;53.100;6.686;2022-12-20T02:49:45;8.50;99.90
54684;DHT22;40582;53.100;6.686;2022-12-20T02:52:12;8.50;99.90
54684;DHT22;40582;53.100;6.686;2022-12-20T02:54:39;8.60;99.90
54684;DHT22;40582;53.100;6.686;2022-12-20T02:57:10;8.60;99.90
54684;DHT22;40582;53.100;6.686;2022-12-20T02:59:50;8.60;99.90
54684;DHT22;40582;53.100;6.686;2022-12-20T03:02:20;8.60;99.90
54684;DHT22;40582;53.100;6.686;2022-12-20T03:04:47;8.60;99.90
54684;DHT22;40582;53.100;6.686;2022-12-20T03:07:13;8.50;99.90
54684;DHT22;40582;53.100;6.686;2022-12-20T03:09:41;8.50;99.90
54684;DHT22;40582;53.100;6.686;2022-12-20T03:12:09;8.50;99.90
54684;DHT22;40582;53.100;6.686;2022-12-20T03:14:37;8.50;99.90
54684;DHT22;40582;53.100;6.686;2022-12-20T03:17:03;8.50;99.90
54684;DHT22;40582;53.100;6.686;2022-12-20T03:19:29;8.40;99.90
54684;DHT22;40582;53.100;6.686;2022-12-20T03:21:55;8.50;99.90
54684;DHT22;40582;53.100;6.686;2022-12-20T03:24:20;8.50;99.90
54684;DHT22;40582;53.100;6.686;2022-12-20T03:26:46;8.50;99.90
54684;DHT22;40582;53.100;6.686;2022-12-20T03:29:12;8.40;99.90
54684;DHT22;40582;53.100;6.686;2022-12-20T03:31:38;8.40;99.90
54684;DHT22;40582;53.100;6.686;2022-12-20T03:34:04;8.40;99.90
54684;DHT22;40582;53.100;6.686;2022-12-20T03:36:30;8.40;99.90
54684;DHT22;40582;53.100;6.686;2022-12-20T03:38:56;8.40;99.90
54684;DHT22;40582;53.100;6.686;2022-12-20T03:41:22;8.40;99.90
54684;DHT22;40582;53.100;6.686;2022-12-20T03:43:48;8.40;99.90
54684;DHT22;40582;53.100;6.686;2022-12-20T03:46:15;8.40;99.90
54684;DHT22;40582;53.100;6.686;2022-12-20T03:48:41;8.40;99.90
54684;DHT22;40582;53.100;6.686;2022-12-20T03:51:06;8.40;99.90
54684;DHT22;40582;53.100;6.686;2022-12-20T03:53:32;8.40;99.90
54684;DHT22;40582;53.100;6.686;2022-12-20T03:55:58;8.30;99.90
54684;DHT22;40582;53.100;6.686;2022-12-20T03:58:24;8.30;99.90
54684;DHT22;40582;53.100;6.686;2022-12-20T04:00:50;8.50;99.90
54684;DHT22;40582;53.100;6.686;2022-12-20T04:03:15;8.40;99.90
54684;DHT22;40582;53.100;6.686;2022-12-20T04:05:41;8.40;99.90
54684;DHT22;40582;53.100;6.686;2022-12-20T04:08:07;8.40;99.90
54684;DHT22;40582;53.100;6.686;2022-12-20T04:10:32;8.30;99.90
54684;DHT22;40582;53.100;6.686;2022-12-20T04:13:18;8.30;99.90
54684;DHT22;40582;53.100;6.686;2022-12-20T04:15:44;8.30;99.90
54684;DHT22;40582;53.100;6.686;2022-12-20T04:18:09;8.30;99.90
54684;DHT22;40582;53.100;6.686;2022-12-20T04:20:35;8.30;99.90
54684;DHT22;40582;53.100;6.686;2022-12-20T04:23:01;8.40;99.90
54684;DHT22;40582;53.100;6.686;2022-12-20T04:25:26;8.40;99.90
54684;DHT22;40582;53.100;6.686;2022-12-20T04:27:52;8.40;99.90
54684;DHT22;40582;53.100;6.686;2022-12-20T04:30:18;8.40;99.90
54684;DHT22;40582;53.100;6.686;2022-12-20T04:32:44;8.40;99.90
54684;DHT22;40582;53.100;6.686;2022-12-20T04:35:10;8.40;99.90
54684;DHT22;40582;53.100;6.686;2022-12-20T04:37:35;8.40;99.90
54684;DHT22;40582;53.100;6.686;2022-12-20T04:40:01;8.50;99.90
54684;DHT22;40582;53.100;6.686;2022-12-20T04:42:27;8.40;99.90
54684;DHT22;40582;53.100;6.686;2022-12-20T04:44:52;8.40;99.90
54684;DHT22;40582;53.100;6.686;2022-12-20T04:47:18;8.50;99.90
54684;DHT22;40582;53.100;6.686;2022-12-20T04:49:44;8.50;99.90
54684;DHT22;40582;53.100;6.686;2022-12-20T04:52:09;8.50;99.90
54684;DHT22;40582;53.100;6.686;2022-12-20T04:55:14;8.50;99.90
54684;DHT22;40582;53.100;6.686;2022-12-20T04:57:40;8.50;99.90
54684;DHT22;40582;53.100;6.686;2022-12-20T05:00:06;8.60;99.90
54684;DHT22;40582;53.100;6.686;2022-12-20T05:02:32;8.60;99.90
54684;DHT22;40582;53.100;6.686;2022-12-20T05:04:58;8.70;99.90
54684;DHT22;40582;53.100;6.686;2022-12-20T05:07:24;8.70;99.90
54684;DHT22;40582;53.100;6.686;2022-12-20T05:09:49;8.80;99.90
54684;DHT22;40582;53.100;6.686;2022-12-20T05:12:15;8.80;99.90
54684;DHT22;40582;53.100;6.686;2022-12-20T05:14:40;8.80;99.90
54684;DHT22;40582;53.100;6.686;2022-12-20T05:17:06;8.80;99.90
54684;DHT22;40582;53.100;6.686;2022-12-20T05:19:33;8.90;99.90
54684;DHT22;40582;53.100;6.686;2022-12-20T05:21:59;8.90;99.90
54684;DHT22;40582;53.100;6.686;2022-12-20T05:24:43;8.90;99.90
54684;DHT22;40582;53.100;6.686;2022-12-20T05:27:27;9.00;99.90
54684;DHT22;40582;53.100;6.686;2022-12-20T05:29:54;9.00;99.90
54684;DHT22;40582;53.100;6.686;2022-12-20T05:32:20;9.00;99.90
54684;DHT22;40582;53.100;6.686;2022-12-20T05:34:46;9.00;99.90
54684;DHT22;40582;53.100;6.686;2022-12-20T05:37:12;9.00;99.90
54684;DHT22;40582;53.100;6.686;2022-12-20T05:39:37;9.00;99.90
54684;DHT22;40582;53.100;6.686;2022-12-20T05:42:03;9.00;99.90
54684;DHT22;40582;53.100;6.686;2022-12-20T05:44:29;9.00;99.90
54684;DHT22;40582;53.100;6.686;2022-12-20T05:46:54;9.10;99.90
54684;DHT22;40582;53.100;6.686;2022-12-20T05:49:20;9.10;99.90
54684;DHT22;40582;53.100;6.686;2022-12-20T05:51:46;9.10;99.90
54684;DHT22;40582;53.100;6.686;2022-12-20T05:54:11;9.10;99.90
54684;DHT22;40582;53.100;6.686;2022-12-20T05:56:37;9.20;99.90
54684;DHT22;40582;53.100;6.686;2022-12-20T05:59:02;9.20;99.90
54684;DHT22;40582;53.100;6.686;2022-12-20T06:01:28;9.20;99.90
54684;DHT22;40582;53.100;6.686;2022-12-20T06:03:54;9.20;99.90
54684;DHT22;40582;53.100;6.686;2022-12-20T06:06:19;9.10;99.90
54684;DHT22;40582;53.100;6.686;2022-12-20T06:08:45;9.10;99.90
54684;DHT22;40582;53.100;6.686;2022-12-20T06:11:11;9.10;99.90
54684;DHT22;40582;53.100;6.686;2022-12-20T06:13:36;9.10;99.90
54684;DHT22;40582;53.100;6.686;2022-12-20T06:16:02;9.10;99.90
54684;DHT22;40582;53.100;6.686;2022-12-20T06:18:28;9.10;99.90
54684;DHT22;40582;53.100;6.686;2022-12-20T06:20:54;9.10;99.90
54684;DHT22;40582;53.100;6.686;2022-12-20T06:23:20;9.10;99.90
54684;DHT22;40582;53.100;6.686;2022-12-20T06:25:46;9.20;99.90
54684;DHT22;40582;53.100;6.686;2022-12-20T06:28:13;9.20;99.90
54684;DHT22;40582;53.100;6.686;2022-12-20T06:30:40;9.20;99.90
54684;DHT22;40582;53.100;6.686;2022-12-20T06:33:06;9.20;99.90
54684;DHT22;40582;53.100;6.686;2022-12-20T06:35:32;9.30;99.90
54684;DHT22;40582;53.100;6.686;2022-12-20T06:37:57;9.30;99.90
54684;DHT22;40582;53.100;6.686;2022-12-20T06:40:23;9.30;99.90
54684;DHT22;40582;53.100;6.686;2022-12-20T06:42:49;9.30;99.90
54684;DHT22;40582;53.100;6.686;2022-12-20T06:45:17;9.40;99.90
54684;DHT22;40582;53.100;6.686;2022-12-20T06:47:43;9.40;99.90
54684;DHT22;40582;53.100;6.686;2022-12-20T06:50:10;9.40;99.90
54684;DHT22;40582;53.100;6.686;2022-12-20T06:52:36;9.40;99.90
54684;DHT22;40582;53.100;6.686;2022-12-20T06:55:02;9.40;99.90
54684;DHT22;40582;53.100;6.686;2022-12-20T06:57:27;9.40;99.90
54684;DHT22;40582;53.100;6.686;2022-12-20T06:59:53;9.40;99.90
54684;DHT22;40582;53.100;6.686;2022-12-20T07:02:19;9.40;99.90
54684;DHT22;40582;53.100;6.686;2022-12-20T07:04:45;9.30;99.90
54684;DHT22;40582;53.100;6.686;2022-12-20T07:07:11;9.30;99.90
54684;DHT22;40582;53.100;6.686;2022-12-20T07:09:37;9.30;99.90
54684;DHT22;40582;53.100;6.686;2022-12-20T07:12:06;9.20;99.90
54684;DHT22;40582;53.100;6.686;2022-12-20T07:14:32;9.20;99.90
54684;DHT22;40582;53.100;6.686;2022-12-20T07:16:58;9.20;99.90
54684;DHT22;40582;53.100;6.686;2022-12-20T07:19:23;9.20;99.90
54684;DHT22;40582;53.100;6.686;2022-12-20T07:21:49;9.20;99.90
54684;DHT22;40582;53.100;6.686;2022-12-20T07:24:15;9.20;99.90
54684;DHT22;40582;53.100;6.686;2022-12-20T07:26:42;9.20;99.90
54684;DHT22;40582;53.100;6.686;2022-12-20T07:29:07;9.20;99.90
54684;DHT22;40582;53.100;6.686;2022-12-20T07:31:33;9.20;99.90
54684;DHT22;40582;53.100;6.686;2022-12-20T07:33:59;9.20;99.90
54684;DHT22;40582;53.100;6.686;2022-12-20T07:36:24;9.20;99.90
54684;DHT22;40582;53.100;6.686;2022-12-20T07:38:50;9.20;99.90
54684;DHT22;40582;53.100;6.686;2022-12-20T07:41:17;9.30;99.90
54684;DHT22;40582;53.100;6.686;2022-12-20T07:43:43;9.20;99.90
54684;DHT22;40582;53.100;6.686;2022-12-20T07:46:12;9.20;99.90
54684;DHT22;40582;53.100;6.686;2022-12-20T07:48:38;9.20;99.90
54684;DHT22;40582;53.100;6.686;2022-12-20T07:51:20;9.30;99.90
54684;DHT22;40582;53.100;6.686;2022-12-20T07:53:52;9.30;99.90
54684;DHT22;40582;53.100;6.686;2022-12-20T07:56:20;9.30;99.90
54684;DHT22;40582;53.100;6.686;2022-12-20T07:58:48;9.30;99.90
54684;DHT22;40582;53.100;6.686;2022-12-20T08:01:15;9.30;99.90
54684;DHT22;40582;53.100;6.686;2022-12-20T08:03:48;9.30;99.90
54684;DHT22;40582;53.100;6.686;2022-12-20T08:06:16;9.40;99.90
54684;DHT22;40582;53.100;6.686;2022-12-20T08:08:46;9.40;99.90
54684;DHT22;40582;53.100;6.686;2022-12-20T08:11:14;9.40;99.90
54684;DHT22;40582;53.100;6.686;2022-12-20T08:13:40;9.40;99.90
54684;DHT22;40582;53.100;6.686;2022-12-20T08:16:06;9.40;99.90
54684;DHT22;40582;53.100;6.686;2022-12-20T08:18:32;9.40;99.90
54684;DHT22;40582;53.100;6.686;2022-12-20T08:20:57;9.40;99.90
54684;DHT22;40582;53.100;6.686;2022-12-20T08:23:23;9.40;99.90
54684;DHT22;40582;53.100;6.686;2022-12-20T08:25:50;9.50;99.90
54684;DHT22;40582;53.100;6.686;2022-12-20T08:28:15;9.50;99.90
54684;DHT22;40582;53.100;6.686;2022-12-20T08:30:41;9.50;99.90
54684;DHT22;40582;53.100;6.686;2022-12-20T08:33:07;9.50;99.90
54684;DHT22;40582;53.100;6.686;2022-12-20T08:35:32;9.50;99.90
54684;DHT22;40582;53.100;6.686;2022-12-20T08:37:58;9.50;99.90
54684;DHT22;40582;53.100;6.686;2022-12-20T08:40:24;9.50;99.90
54684;DHT22;40582;53.100;6.686;2022-12-20T08:42:49;9.50;99.90
54684;DHT22;40582;53.100;6.686;2022-12-20T08:45:15;9.50;99.90
54684;DHT22;40582;53.100;6.686;2022-12-20T08:47:41;9.60;99.90
54684;DHT22;40582;53.100;6.686;2022-12-20T08:50:07;9.60;99.90
54684;DHT22;40582;53.100;6.686;2022-12-20T08:52:32;9.60;99.90
54684;DHT22;40582;53.100;6.686;2022-12-20T08:54:58;9.60;99.90
54684;DHT22;40582;53.100;6.686;2022-12-20T08:57:24;9.60;99.90
54684;DHT22;40582;53.100;6.686;2022-12-20T08:59:49;9.60;99.90
54684;DHT22;40582;53.100;6.686;2022-12-20T09:02:15;9.70;99.90
54684;DHT22;40582;53.100;6.686;2022-12-20T09:04:41;9.70;99.90
54684;DHT22;40582;53.100;6.686;2022-12-20T09:07:06;9.70;99.90
54684;DHT22;40582;53.100;6.686;2022-12-20T09:09:32;9.70;99.90
54684;DHT22;40582;53.100;6.686;2022-12-20T09:11:58;9.70;99.90
54684;DHT22;40582;53.100;6.686;2022-12-20T09:14:23;9.80;99.90
54684;DHT22;40582;53.100;6.686;2022-12-20T09:16:49;9.70;99.90
54684;DHT22;40582;53.100;6.686;2022-12-20T09:19:15;9.70;99.90
54684;DHT22;40582;53.100;6.686;2022-12-20T09:21:41;9.70;99.90
54684;DHT22;40582;53.100;6.686;2022-12-20T09:24:08;9.70;99.90
54684;DHT22;40582;53.100;6.686;2022-12-20T09:26:33;9.70;99.90
54684;DHT22;40582;53.100;6.686;2022-12-20T09:29:00;9.80;99.90
54684;DHT22;40582;53.100;6.686;2022-12-20T09:31:26;9.80;99.90
54684;DHT22;40582;53.100;6.686;2022-12-20T09:33:53;9.90;99.90
54684;DHT22;40582;53.100;6.686;2022-12-20T09:36:21;9.90;99.90
54684;DHT22;40582;53.100;6.686;2022-12-20T09:38:47;10.00;99.90
54684;DHT22;40582;53.100;6.686;2022-12-20T09:41:41;10.00;99.90
54684;DHT22;40582;53.100;6.686;2022-12-20T09:44:26;10.10;99.90
54684;DHT22;40582;53.100;6.686;2022-12-20T09:47:05;10.10;99.90
54684;DHT22;40582;53.100;6.686;2022-12-20T09:49:35;10.10;99.90
54684;DHT22;40582;53.100;6.686;2022-12-20T09:55:13;10.10;99.90
54684;DHT22;40582;53.100;6.686;2022-12-20T10:00:45;10.20;99.90
54684;DHT22;40582;53.100;6.686;2022-12-20T10:03:18;10.10;99.90
54684;DHT22;40582;53.100;6.686;2022-12-20T10:05:57;10.20;99.90
54684;DHT22;40582;53.100;6.686;2022-12-20T10:14:06;10.20;99.90
54684;DHT22;40582;53.100;6.686;2022-12-20T10:16:39;10.20;99.90
54684;DHT22;40582;53.100;6.686;2022-12-20T10:22:25;10.30;99.90
54684;DHT22;40582;53.100;6.686;2022-12-20T10:27:43;10.20;99.90
54684;DHT22;40582;53.100;6.686;2022-12-20T10:30:16;10.20;99.90
54684;DHT22;40582;53.100;6.686;2022-12-20T10:32:45;10.20;99.90
54684;DHT22;40582;53.100;6.686;2022-12-20T10:35:21;10.20;99.90
54684;DHT22;40582;53.100;6.686;2022-12-20T10:38:09;10.20;99.90
54684;DHT22;40582;53.100;6.686;2022-12-20T10:40:41;10.20;99.90
54684;DHT22;40582;53.100;6.686;2022-12-20T10:43:15;10.20;99.90
54684;DHT22;40582;53.100;6.686;2022-12-20T10:45:42;10.20;99.90
54684;DHT22;40582;53.100;6.686;2022-12-20T10:48:34;10.20;99.90
54684;DHT22;40582;53.100;6.686;2022-12-20T10:53:29;10.30;99.90
54684;DHT22;40582;53.100;6.686;2022-12-20T10:56:31;10.30;99.90
54684;DHT22;40582;53.100;6.686;2022-12-20T11:01:33;10.40;99.90
54684;DHT22;40582;53.100;6.686;2022-12-20T11:04:04;10.40;99.90
54684;DHT22;40582;53.100;6.686;2022-12-20T11:06:42;10.40;99.90
54684;DHT22;40582;53.100;6.686;2022-12-20T11:09:29;10.40;99.90
54684;DHT22;40582;53.100;6.686;2022-12-20T11:12:15;10.40;99.90
54684;DHT22;40582;53.100;6.686;2022-12-20T11:14:43;10.40;99.90
54684;DHT22;40582;53.100;6.686;2022-12-20T11:17:30;10.40;99.90
54684;DHT22;40582;53.100;6.686;2022-12-20T11:20:03;10.40;99.90
54684;DHT22;40582;53.100;6.686;2022-12-20T11:25:31;10.40;99.90
54684;DHT22;40582;53.100;6.686;2022-12-20T11:42:13;10.40;99.90
54684;DHT22;40582;53.100;6.686;2022-12-20T11:47:37;10.30;99.90
54684;DHT22;40582;53.100;6.686;2022-12-20T11:53:04;10.30;99.90
54684;DHT22;40582;53.100;6.686;2022-12-20T11:55:38;10.30;99.90
54684;DHT22;40582;53.100;6.686;2022-12-20T11:58:17;10.30;99.90
54684;DHT22;40582;53.100;6.686;2022-12-20T12:01:05;10.30;99.90
54684;DHT22;40582;53.100;6.686;2022-12-20T12:03:37;10.30;99.90
54684;DHT22;40582;53.100;6.686;2022-12-20T12:06:07;10.30;99.90
54684;DHT22;40582;53.100;6.686;2022-12-20T12:08:39;10.30;99.90
54684;DHT22;40582;53.100;6.686;2022-12-20T12:11:18;10.30;99.90
54684;DHT22;40582;53.100;6.686;2022-12-20T12:13:45;10.30;99.90
54684;DHT22;40582;53.100;6.686;2022-12-20T12:16:19;10.30;99.90
54684;DHT22;40582;53.100;6.686;2022-12-20T12:18:47;10.20;99.90
54684;DHT22;40582;53.100;6.686;2022-12-20T12:24:23;10.20;99.90
54684;DHT22;40582;53.100;6.686;2022-12-20T12:26:51;10.30;99.90
54684;DHT22;40582;53.100;6.686;2022-12-20T12:29:18;10.30;99.90
54684;DHT22;40582;53.100;6.686;2022-12-20T12:40:49;10.20;99.90
54684;DHT22;40582;53.100;6.686;2022-12-20T12:43:40;10.20;99.90
54684;DHT22;40582;53.100;6.686;2022-12-20T12:49:07;10.20;99.90
54684;DHT22;40582;53.100;6.686;2022-12-20T12:51:37;10.10;99.90
54684;DHT22;40582;53.100;6.686;2022-12-20T12:54:29;10.20;99.90
54684;DHT22;40582;53.100;6.686;2022-12-20T12:57:13;10.10;99.90
54684;DHT22;40582;53.100;6.686;2022-12-20T12:59:47;10.20;99.90
54684;DHT22;40582;53.100;6.686;2022-12-20T13:09:51;10.10;99.90
54684;DHT22;40582;53.100;6.686;2022-12-20T13:12:47;10.10;99.90
54684;DHT22;40582;53.100;6.686;2022-12-20T13:20:34;10.10;99.90
54684;DHT22;40582;53.100;6.686;2022-12-20T13:33:38;10.20;99.90
54684;DHT22;40582;53.100;6.686;2022-12-20T13:43:50;10.20;99.90
54684;DHT22;40582;53.100;6.686;2022-12-20T13:46:42;10.10;99.90
54684;DHT22;40582;53.100;6.686;2022-12-20T13:49:17;10.10;99.90
54684;DHT22;40582;53.100;6.686;2022-12-20T13:51:46;10.20;99.90
54684;DHT22;40582;53.100;6.686;2022-12-20T13:54:17;10.20;99.90
54684;DHT22;40582;53.100;6.686;2022-12-20T13:56:47;10.20;99.90
54684;DHT22;40582;53.100;6.686;2022-12-20T13:59:21;10.20;99.90
54684;DHT22;40582;53.100;6.686;2022-12-20T14:01:51;10.20;99.90
54684;DHT22;40582;53.100;6.686;2022-12-20T14:04:18;10.10;99.90
54684;DHT22;40582;53.100;6.686;2022-12-20T14:06:51;10.10;99.90
54684;DHT22;40582;53.100;6.686;2022-12-20T14:09:47;10.20;99.90
54684;DHT22;40582;53.100;6.686;2022-12-20T14:12:19;10.10;99.90
54684;DHT22;40582;53.100;6.686;2022-12-20T14:14:46;10.20;99.90
54684;DHT22;40582;53.100;6.686;2022-12-20T14:17:28;10.20;99.90
54684;DHT22;40582;53.100;6.686;2022-12-20T14:20:04;10.20;99.90
54684;DHT22;40582;53.100;6.686;2022-12-20T14:22:30;10.10;99.90
54684;DHT22;40582;53.100;6.686;2022-12-20T14:24:57;10.20;99.90
54684;DHT22;40582;53.100;6.686;2022-12-20T14:27:24;10.10;99.90
54684;DHT22;40582;53.100;6.686;2022-12-20T14:29:51;10.20;99.90
54684;DHT22;40582;53.100;6.686;2022-12-20T14:32:20;10.20;99.90
54684;DHT22;40582;53.100;6.686;2022-12-20T14:34:47;10.20;99.90
54684;DHT22;40582;53.100;6.686;2022-12-20T14:42:20;10.20;99.90
54684;DHT22;40582;53.100;6.686;2022-12-20T14:44:46;10.20;99.90
54684;DHT22;40582;53.100;6.686;2022-12-20T14:47:15;10.20;99.90
54684;DHT22;40582;53.100;6.686;2022-12-20T14:49:49;10.20;99.90
54684;DHT22;40582;53.100;6.686;2022-12-20T14:52:27;10.20;99.90
54684;DHT22;40582;53.100;6.686;2022-12-20T14:57:29;10.20;99.90
54684;DHT22;40582;53.100;6.686;2022-12-20T15:00:12;10.20;99.90
54684;DHT22;40582;53.100;6.686;2022-12-20T15:08:26;10.20;99.90
54684;DHT22;40582;53.100;6.686;2022-12-20T15:11:03;10.20;99.90
54684;DHT22;40582;53.100;6.686;2022-12-20T15:13:44;10.20;99.90
54684;DHT22;40582;53.100;6.686;2022-12-20T15:16:20;10.20;99.90
54684;DHT22;40582;53.100;6.686;2022-12-20T15:18:51;10.20;99.90
54684;DHT22;40582;53.100;6.686;2022-12-20T15:21:41;10.20;99.90
54684;DHT22;40582;53.100;6.686;2022-12-20T15:24:15;10.20;99.90
54684;DHT22;40582;53.100;6.686;2022-12-20T15:26:43;10.20;99.90
54684;DHT22;40582;53.100;6.686;2022-12-20T15:29:19;10.20;99.90
54684;DHT22;40582;53.100;6.686;2022-12-20T15:31:46;10.20;99.90
54684;DHT22;40582;53.100;6.686;2022-12-20T15:34:17;10.20;99.90
54684;DHT22;40582;53.100;6.686;2022-12-20T15:36:44;10.20;99.90
54684;DHT22;40582;53.100;6.686;2022-12-20T15:39:11;10.20;99.90
54684;DHT22;40582;53.100;6.686;2022-12-20T15:41:39;10.20;99.90
54684;DHT22;40582;53.100;6.686;2022-12-20T15:44:14;10.20;99.90
54684;DHT22;40582;53.100;6.686;2022-12-20T15:46:40;10.20;99.90
54684;DHT22;40582;53.100;6.686;2022-12-20T15:49:13;10.20;99.90
54684;DHT22;40582;53.100;6.686;2022-12-20T15:51:39;10.20;99.90
54684;DHT22;40582;53.100;6.686;2022-12-20T15:54:27;10.20;99.90
54684;DHT22;40582;53.100;6.686;2022-12-20T15:56:54;10.20;99.90
54684;DHT22;40582;53.100;6.686;2022-12-20T15:59:20;10.20;99.90
54684;DHT22;40582;53.100;6.686;2022-12-20T16:01:46;10.20;99.90
54684;DHT22;40582;53.100;6.686;2022-12-20T16:04:17;10.20;99.90
54684;DHT22;40582;53.100;6.686;2022-12-20T16:06:45;10.20;99.90
54684;DHT22;40582;53.100;6.686;2022-12-20T16:09:11;10.20;99.90
54684;DHT22;40582;53.100;6.686;2022-12-20T16:11:37;10.20;99.90
54684;DHT22;40582;53.100;6.686;2022-12-20T16:14:03;10.20;99.90
54684;DHT22;40582;53.100;6.686;2022-12-20T16:16:33;10.20;99.90
54684;DHT22;40582;53.100;6.686;2022-12-20T16:18:59;10.20;99.90
54684;DHT22;40582;53.100;6.686;2022-12-20T16:21:33;10.10;99.90
54684;DHT22;40582;53.100;6.686;2022-12-20T16:24:01;10.20;99.90
54684;DHT22;40582;53.100;6.686;2022-12-20T16:26:27;10.20;99.90
54684;DHT22;40582;53.100;6.686;2022-12-20T16:28:54;10.20;99.90
54684;DHT22;40582;53.100;6.686;2022-12-20T16:31:34;10.20;99.90
54684;DHT22;40582;53.100;6.686;2022-12-20T16:34:05;10.20;99.90
54684;DHT22;40582;53.100;6.686;2022-12-20T16:36:32;10.10;99.90
54684;DHT22;40582;53.100;6.686;2022-12-20T16:38:58;10.20;99.90
54684;DHT22;40582;53.100;6.686;2022-12-20T16:41:26;10.20;99.90
54684;DHT22;40582;53.100;6.686;2022-12-20T16:43:56;10.20;99.90
54684;DHT22;40582;53.100;6.686;2022-12-20T16:46:24;10.20;99.90
54684;DHT22;40582;53.100;6.686;2022-12-20T16:48:52;10.20;99.90
54684;DHT22;40582;53.100;6.686;2022-12-20T16:51:30;10.20;99.90
54684;DHT22;40582;53.100;6.686;2022-12-20T16:53:59;10.20;99.90
54684;DHT22;40582;53.100;6.686;2022-12-20T16:56:26;10.10;99.90
54684;DHT22;40582;53.100;6.686;2022-12-20T16:58:52;10.20;99.90
54684;DHT22;40582;53.100;6.686;2022-12-20T17:01:20;10.20;99.90
54684;DHT22;40582;53.100;6.686;2022-12-20T17:03:48;10.10;99.90
54684;DHT22;40582;53.100;6.686;2022-12-20T17:06:15;10.20;99.90
54684;DHT22;40582;53.100;6.686;2022-12-20T17:08:42;10.10;99.90
54684;DHT22;40582;53.100;6.686;2022-12-20T17:11:15;10.20;99.90
54684;DHT22;40582;53.100;6.686;2022-12-20T17:13:42;10.10;99.90
54684;DHT22;40582;53.100;6.686;2022-12-20T17:16:10;10.10;99.90
54684;DHT22;40582;53.100;6.686;2022-12-20T17:18:40;10.20;99.90
54684;DHT22;40582;53.100;6.686;2022-12-20T17:23:46;10.10;99.90
54684;DHT22;40582;53.100;6.686;2022-12-20T17:26:17;10.10;99.90
54684;DHT22;40582;53.100;6.686;2022-12-20T17:28:45;10.10;99.90
54684;DHT22;40582;53.100;6.686;2022-12-20T17:31:31;10.10;99.90
54684;DHT22;40582;53.100;6.686;2022-12-20T17:34:24;10.10;99.90
54684;DHT22;40582;53.100;6.686;2022-12-20T17:36:52;10.10;99.90
54684;DHT22;40582;53.100;6.686;2022-12-20T17:39:19;10.10;99.90
54684;DHT22;40582;53.100;6.686;2022-12-20T17:41:45;10.10;99.90
54684;DHT22;40582;53.100;6.686;2022-12-20T17:44:21;10.10;99.90
54684;DHT22;40582;53.100;6.686;2022-12-20T17:46:47;10.10;99.90
54684;DHT22;40582;53.100;6.686;2022-12-20T17:49:14;10.10;99.90
54684;DHT22;40582;53.100;6.686;2022-12-20T17:51:40;10.10;99.90
54684;DHT22;40582;53.100;6.686;2022-12-20T17:54:22;10.10;99.90